Terminal Aerodrome Forecast
Issued by NWS

Home | Current Version | Previous Version | Text Only | Print | Product List | Glossary On
Versions: 1 2 3 4 5 6 7 8 9 10 11 12 13 14 15 16 17 18 19 20 21 22 23 24 25
000
FTUS42 KCAE 250927 AAA
TAFCUB
TAF AMD
KCUB 250927Z 2509/2606 VRB03KT P6SM SKC
      TEMPO 2511/2513 4SM BR SCT008
     FM251800 08004KT P6SM SCT040=

USA.gov is the U.S. government's official web portal to all federal, state and local government web resources and services.